Amstetten, Austria

8:33 PM CEST on September 03, 2015 (GMT +0200)
Grein an der Donau | | Change Station
CLOSE
Current Station
Personal Weather Station
Location: Grein, OBERöSTERREICH
Elevation: 794 ft
Nearby Weather Stations

Elev 794 ft 48.23 °N, 14.85 °E | Updated 0 second ago

Mostly Cloudy
Mostly Cloudy
63.3 °F
Feels Like 63.3 °F
N
0.0
Wind Variable Wind from NE
Gusts 0.0 mph

Today
High -- | Low -- °F
--% Chance of Precip.
Yesterday
High -- | Low -- °F
Precip. -- in
6:20 AM 7:38 PM
Waning Gibbous, 68% visible
Pressure 29.92 in
Visibility 5.0 miles
Clouds Few 2400 ft
Mostly Cloudy 2800 ft
Mostly Cloudy 4200 ft
Dew Point 60 °F
Humidity 88%
Rainfall 0.05 in
Snow Depth Not available.
UV 0.0 out of 12
Pollen Not available.
Air Quality Not available.
Flu Activity Not available.
METAR LOWL 031820Z 26006KT 8000 FEW024 BKN028 BKN042 17/15 Q1013 TEMPO SHRA
Pressure 29.92 in
Visibility 5.0 miles
Clouds Few 2400 ft
Mostly Cloudy 2800 ft
Mostly Cloudy 4200 ft
Dew Point 60 °F
Humidity 88%
Rainfall 0.05 in
Snow Depth Not available.
UV 0.0 out of 12
Pollen Not available.
Air Quality Not available.
Flu Activity Not available.
METAR LOWL 031820Z 26006KT 8000 FEW024 BKN028 BKN042 17/15 Q1013 TEMPO SHRA

10-Day Weather Forecast

×

Almanac

Astronomy

Sep. 03, 2015 Rise Set
Actual Time
Civil Twilight
Nautical Twilight
Astronomical Twilight
Moon
Length of Visible Light
Length of Day
Tomorrow will be .
, % of the Moon is Illuminated

Today's Extremes

Country Highs Country Lows

Community

WunderPhotos

Upload Photos

1,851,999 photos uploaded!

WunderBlogs® & News

Nearby

Air Quality

  Air Quality AQ Index Pollutant
Not available.

Snow Depth

Station Depth Elevation

Earthquake Activity

City Distance Mag. Time & Date
Minimum magnitude displayed is 2.5.

Coastal Water Temperatures

Place Temperature

Stations

Nearby Weather Stations

Station Location Temp. Windchill Dew Point Humidity Wind Precip. Elev Updated Type